createdAt,value
2019-02-18T00:01:03.618Z,8.18
2019-02-18T00:03:33.124Z,8.21
2019-02-18T00:06:02.777Z,8.12
2019-02-18T00:08:32.764Z,8.12
2019-02-18T00:11:02.254Z,8.25
2019-02-18T00:13:32.232Z,7.98
2019-02-18T00:16:01.916Z,8.06
2019-02-18T00:18:31.469Z,7.88
2019-02-18T00:21:00.954Z,7.75
2019-02-18T00:23:30.558Z,7.68
2019-02-18T00:26:00.069Z,7.58
2019-02-18T00:28:29.564Z,7.35
2019-02-18T00:30:59.205Z,7.34
2019-02-18T00:33:28.712Z,7.34
2019-02-18T00:35:58.237Z,7.33
2019-02-18T00:38:27.783Z,7.27
2019-02-18T00:40:57.365Z,7.26
2019-02-18T00:43:26.866Z,7.26
2019-02-18T00:45:57.646Z,7.34
2019-02-18T00:48:27.236Z,7.47
2019-02-18T00:50:56.743Z,7.43
2019-02-18T00:53:27.310Z,7.60
2019-02-18T00:55:56.812Z,7.62
2019-02-18T00:58:26.762Z,7.47
2019-02-18T01:00:56.301Z,7.34
2019-02-18T01:03:25.828Z,7.24
2019-02-18T01:05:55.474Z,7.17
2019-02-18T01:08:25.011Z,7.16
2019-02-18T01:10:54.581Z,7.00
2019-02-18T01:13:24.114Z,6.90
2019-02-18T01:15:53.894Z,6.76
2019-02-18T01:18:23.405Z,6.73
2019-02-18T01:20:52.983Z,6.78
2019-02-18T01:23:22.599Z,6.79
2019-02-18T01:25:52.574Z,6.72
2019-02-18T01:28:22.084Z,6.69
2019-02-18T01:30:51.662Z,6.57
2019-02-18T01:33:21.189Z,6.66
2019-02-18T01:35:50.834Z,6.53
2019-02-18T01:38:20.459Z,6.48
2019-02-18T01:40:50.015Z,6.65
2019-02-18T01:43:19.525Z,6.82
2019-02-18T01:45:49.078Z,6.92
2019-02-18T01:48:18.620Z,6.85
2019-02-18T01:50:48.130Z,6.67
2019-02-18T01:53:17.721Z,6.47
2019-02-18T01:55:47.241Z,6.53
2019-02-18T01:58:16.814Z,6.55
2019-02-18T02:00:46.402Z,6.65
2019-02-18T02:03:15.915Z,6.78
2019-02-18T02:05:45.441Z,6.51
2019-02-18T02:08:15.097Z,6.60
2019-02-18T02:10:44.675Z,6.58
2019-02-18T02:13:30.134Z,6.65
2019-02-18T02:16:01.341Z,6.78
2019-02-18T02:18:30.994Z,6.83
2019-02-18T02:21:00.689Z,6.58
2019-02-18T02:23:30.190Z,6.62
2019-02-18T02:25:59.725Z,6.63
2019-02-18T02:28:29.269Z,6.90
2019-02-18T02:31:01.066Z,6.80
2019-02-18T02:33:30.024Z,7.06
2019-02-18T02:35:59.672Z,7.17
2019-02-18T02:38:29.306Z,7.17
2019-02-18T02:40:58.832Z,7.12
2019-02-18T02:43:29.605Z,7.22
2019-02-18T02:45:59.108Z,7.16
2019-02-18T02:48:29.106Z,6.83
2019-02-18T02:50:58.654Z,6.65
2019-02-18T02:53:28.625Z,6.67
2019-02-18T02:55:58.120Z,6.51
2019-02-18T02:58:27.774Z,6.76
2019-02-18T03:00:57.347Z,6.85
2019-02-18T03:03:26.921Z,6.68
2019-02-18T03:05:56.577Z,6.46
2019-02-18T03:08:26.079Z,6.45
2019-02-18T03:10:55.593Z,6.54
2019-02-18T03:13:25.131Z,6.64
2019-02-18T03:15:54.647Z,6.60
2019-02-18T03:18:24.147Z,6.62
2019-02-18T03:20:53.705Z,6.50
2019-02-18T03:23:23.245Z,6.45
2019-02-18T03:25:53.681Z,6.41
2019-02-18T03:28:47.303Z,6.31
2019-02-18T03:31:21.519Z,6.22
2019-02-18T03:34:01.777Z,6.03
2019-02-18T03:36:31.312Z,5.89
2019-02-18T03:39:00.879Z,5.80
2019-02-18T03:41:30.565Z,5.93
2019-02-18T03:44:00.106Z,5.83
2019-02-18T03:46:29.609Z,5.88
2019-02-18T03:49:01.750Z,5.89
2019-02-18T03:51:31.250Z,5.87
2019-02-18T03:54:00.934Z,5.92
2019-02-18T03:56:30.613Z,5.81
2019-02-18T03:59:00.250Z,5.86
2019-02-18T04:01:29.821Z,5.91
2019-02-18T04:03:59.482Z,5.77
2019-02-18T04:06:29.116Z,5.79
2019-02-18T04:08:58.689Z,5.77
2019-02-18T04:11:28.486Z,5.91
2019-02-18T04:13:57.999Z,5.76
2019-02-18T04:16:27.585Z,5.69
2019-02-18T04:18:57.187Z,5.74
2019-02-18T04:21:26.803Z,5.68
2019-02-18T04:23:56.377Z,5.73
2019-02-18T04:26:25.925Z,5.79
2019-02-18T04:28:55.510Z,5.68
2019-02-18T04:31:25.020Z,5.79
2019-02-18T04:33:54.917Z,5.87
2019-02-18T04:36:24.513Z,5.72
2019-02-18T04:38:54.543Z,5.80
2019-02-18T04:41:24.370Z,5.71
2019-02-18T04:43:53.892Z,5.40
2019-02-18T04:46:23.611Z,5.40
2019-02-18T04:48:53.181Z,5.43
2019-02-18T04:51:24.760Z,5.44
2019-02-18T04:53:54.278Z,5.33
2019-02-18T04:56:23.872Z,5.33
2019-02-18T04:58:53.538Z,5.30
2019-02-18T05:01:23.080Z,5.22
2019-02-18T05:03:52.661Z,5.43
2019-02-18T05:06:22.314Z,5.47
2019-02-18T05:08:51.830Z,5.58
2019-02-18T05:11:21.390Z,5.44
2019-02-18T05:13:50.898Z,5.33
2019-02-18T05:16:20.510Z,5.38
2019-02-18T05:18:50.304Z,5.27
2019-02-18T05:21:19.824Z,5.24
2019-02-18T05:23:49.783Z,5.14
2019-02-18T05:26:19.315Z,4.91
2019-02-18T05:28:48.850Z,5.03
2019-02-18T05:31:18.369Z,4.96
2019-02-18T05:33:47.977Z,5.07
2019-02-18T05:36:17.626Z,5.18
2019-02-18T05:38:47.119Z,5.18
2019-02-18T05:41:16.721Z,5.24
2019-02-18T05:43:46.229Z,5.14
2019-02-18T05:46:15.740Z,5.14
2019-02-18T05:48:45.304Z,5.26
2019-02-18T05:51:14.819Z,5.28
2019-02-18T05:53:44.400Z,5.38
2019-02-18T05:56:13.945Z,5.36
2019-02-18T05:58:43.459Z,5.38
2019-02-18T06:01:13.041Z,5.38
2019-02-18T06:03:42.912Z,5.37
2019-02-18T06:06:12.421Z,5.13
2019-02-18T06:08:41.932Z,5.05
2019-02-18T06:11:11.478Z,4.94
2019-02-18T06:13:40.982Z,5.01
2019-02-18T06:16:10.474Z,5.11
2019-02-18T06:18:40.047Z,5.05
2019-02-18T06:21:09.571Z,5.10
2019-02-18T06:23:39.083Z,5.08
2019-02-18T06:26:10.687Z,5.14
2019-02-18T06:28:40.248Z,5.01
2019-02-18T06:31:09.756Z,5.07
2019-02-18T06:33:39.406Z,4.86
2019-02-18T06:36:08.921Z,4.80
2019-02-18T06:38:38.421Z,4.79
2019-02-18T06:41:08.039Z,4.88
2019-02-18T06:43:37.544Z,4.66
2019-02-18T06:46:11.432Z,4.86
2019-02-18T06:48:42.738Z,4.99
2019-02-18T06:51:12.338Z,5.13
2019-02-18T06:53:41.897Z,5.40
2019-02-18T06:56:11.588Z,5.38
2019-02-18T06:58:42.765Z,5.58
2019-02-18T07:01:13.989Z,6.06
2019-02-18T07:03:45.531Z,6.58
2019-02-18T07:06:25.895Z,6.61
2019-02-18T07:08:56.144Z,6.88
2019-02-18T07:11:30.846Z,7.59
2019-02-18T07:14:00.542Z,8.05
2019-02-18T07:16:30.097Z,8.46
2019-02-18T07:18:59.631Z,9.17
2019-02-18T07:21:30.087Z,9.52
2019-02-18T07:24:03.052Z,10.00
2019-02-18T07:26:32.557Z,10.50
2019-02-18T07:29:02.289Z,10.89
2019-02-18T07:31:31.869Z,11.41
2019-02-18T07:34:01.396Z,11.49
2019-02-18T07:36:31.632Z,12.13
2019-02-18T07:39:01.391Z,11.84
2019-02-18T07:41:31.094Z,12.57
2019-02-18T07:44:00.723Z,12.84
2019-02-18T07:46:30.465Z,13.48
2019-02-18T07:49:01.785Z,14.31
2019-02-18T07:51:31.393Z,13.82
2019-02-18T07:54:00.931Z,13.53
2019-02-18T07:56:30.460Z,14.36
2019-02-18T07:59:00.097Z,14.94
2019-02-18T08:01:29.815Z,14.87
2019-02-18T08:03:59.354Z,15.37
2019-02-18T08:06:28.898Z,15.39
2019-02-18T08:08:58.410Z,16.19
2019-02-18T08:11:27.903Z,16.05
2019-02-18T08:13:57.452Z,16.72
2019-02-18T08:16:26.966Z,16.82
2019-02-18T08:18:56.473Z,17.22
2019-02-18T08:21:26.795Z,18.11
2019-02-18T08:24:00.142Z,18.17
2019-02-18T08:26:27.560Z,19.34
2019-02-18T08:28:57.233Z,19.63
2019-02-18T08:31:27.169Z,19.86
2019-02-18T08:33:56.683Z,19.57
2019-02-18T08:36:26.281Z,20.95
2019-02-18T08:38:55.871Z,21.15
2019-02-18T08:41:25.394Z,21.59
2019-02-18T08:43:54.988Z,22.21
2019-02-18T08:46:24.520Z,20.72
2019-02-18T08:48:54.007Z,21.64
2019-02-18T08:51:23.567Z,21.32
2019-02-18T08:53:53.081Z,21.83
2019-02-18T08:56:22.603Z,22.19
2019-02-18T08:58:52.161Z,23.81
2019-02-18T09:01:21.672Z,23.61
2019-02-18T09:03:51.182Z,22.85
2019-02-18T09:06:21.220Z,23.63
2019-02-18T09:09:10.062Z,24.36
2019-02-18T09:11:40.071Z,25.53
2019-02-18T09:14:09.641Z,25.72
2019-02-18T09:16:39.204Z,25.49
2019-02-18T09:19:08.758Z,25.24
2019-02-18T09:21:38.340Z,24.30
2019-02-18T09:24:12.461Z,23.43
2019-02-18T09:26:42.370Z,23.88
2019-02-18T09:29:12.014Z,25.27
2019-02-18T09:31:42.873Z,26.17
2019-02-18T09:34:12.724Z,26.79
2019-02-18T09:36:42.352Z,27.17
2019-02-18T09:39:30.028Z,27.59
2019-02-18T09:41:49.989Z,28.14
2019-02-18T09:44:19.588Z,28.84
2019-02-18T09:46:49.764Z,28.85
2019-02-18T09:49:19.608Z,29.02
2019-02-18T09:51:49.179Z,29.31
2019-02-18T09:54:19.148Z,29.93
2019-02-18T09:56:48.649Z,30.42
2019-02-18T09:59:18.167Z,30.59
2019-02-18T10:01:47.696Z,30.04
2019-02-18T10:04:17.237Z,30.89
2019-02-18T10:06:46.750Z,31.05
2019-02-18T10:09:16.476Z,29.71
2019-02-18T10:11:47.170Z,30.36
2019-02-18T10:14:16.766Z,30.72
2019-02-18T10:16:46.306Z,31.53
2019-02-18T10:19:15.828Z,31.35
2019-02-18T10:21:45.386Z,31.73
2019-02-18T10:24:14.990Z,32.29
2019-02-18T10:26:44.494Z,32.66
2019-02-18T10:29:14.014Z,33.65
2019-02-18T10:31:43.670Z,33.51
2019-02-18T10:34:13.258Z,32.68
2019-02-18T10:36:42.762Z,32.12
2019-02-18T10:39:12.367Z,33.13
2019-02-18T10:41:41.898Z,31.43
2019-02-18T10:44:11.502Z,31.96
2019-02-18T10:46:41.117Z,34.26
2019-02-18T10:49:19.307Z,35.02
2019-02-18T10:51:41.914Z,36.47
2019-02-18T10:54:14.030Z,36.97
2019-02-18T10:56:44.632Z,35.42
2019-02-18T10:59:14.140Z,37.26
2019-02-18T11:01:43.745Z,34.61
2019-02-18T11:04:13.236Z,34.26
2019-02-18T11:06:42.757Z,34.40
2019-02-18T11:09:12.428Z,35.80
2019-02-18T11:11:42.000Z,35.86
2019-02-18T11:14:11.520Z,36.41
2019-02-18T11:16:41.360Z,37.02
2019-02-18T11:19:10.900Z,37.37
2019-02-18T11:21:40.423Z,36.77
2019-02-18T11:24:10.403Z,35.22
2019-02-18T11:26:40.013Z,35.67
2019-02-18T11:29:10.099Z,35.24
2019-02-18T11:31:39.832Z,32.81
2019-02-18T11:34:09.429Z,32.95
2019-02-18T11:36:39.118Z,34.01
2019-02-18T11:39:12.505Z,35.11
2019-02-18T11:41:42.511Z,35.58
2019-02-18T11:44:12.092Z,33.98
2019-02-18T11:46:41.802Z,31.85
2019-02-18T11:49:11.429Z,32.55
2019-02-18T11:51:41.001Z,31.70
2019-02-18T11:54:10.651Z,30.71
2019-02-18T11:56:40.335Z,29.89
2019-02-18T11:59:09.863Z,31.69
2019-02-18T12:01:39.909Z,30.80
2019-02-18T12:04:09.629Z,29.96
2019-02-18T12:06:39.273Z,30.16
2019-02-18T12:09:09.097Z,31.76
2019-02-18T12:11:38.703Z,32.23
2019-02-18T12:14:08.281Z,30.94
2019-02-18T12:16:37.831Z,31.25
2019-02-18T12:19:07.467Z,28.72
2019-02-18T12:21:37.000Z,30.25
2019-02-18T12:24:06.699Z,31.24
2019-02-18T12:26:36.397Z,30.71
2019-02-18T12:29:05.982Z,30.95
2019-02-18T12:31:35.597Z,30.06
2019-02-18T12:34:05.122Z,30.83
2019-02-18T12:36:34.720Z,29.83
2019-02-18T12:39:06.947Z,30.65
2019-02-18T12:41:36.453Z,29.54
2019-02-18T12:44:06.052Z,30.16
2019-02-18T12:46:35.913Z,29.65
2019-02-18T12:49:05.490Z,31.99
2019-02-18T12:51:35.001Z,32.76
2019-02-18T12:54:05.518Z,30.56
2019-02-18T12:56:35.271Z,30.77
2019-02-18T12:59:04.911Z,29.53
2019-02-18T13:01:34.471Z,28.21
2019-02-18T13:04:04.012Z,29.29
2019-02-18T13:06:33.619Z,29.13
2019-02-18T13:09:04.991Z,28.98
2019-02-18T13:11:34.985Z,30.93
2019-02-18T13:14:04.693Z,31.84
2019-02-18T13:16:34.255Z,30.87
2019-02-18T13:19:03.908Z,29.40
2019-02-18T13:21:33.481Z,29.02
2019-02-18T13:24:03.113Z,31.01
2019-02-18T13:26:32.687Z,31.70
2019-02-18T13:29:02.581Z,30.73
2019-02-18T13:31:32.324Z,31.20
2019-02-18T13:34:02.341Z,30.45
2019-02-18T13:36:31.855Z,28.97
2019-02-18T13:39:01.461Z,30.03
2019-02-18T13:41:30.981Z,30.23
2019-02-18T13:44:00.491Z,29.87
2019-02-18T13:46:30.105Z,29.25
2019-02-18T13:48:59.701Z,28.76
2019-02-18T13:51:29.299Z,28.48
2019-02-18T13:53:59.922Z,28.43
2019-02-18T13:56:29.557Z,28.99
2019-02-18T13:59:18.484Z,28.81
2019-02-18T14:01:48.135Z,28.23
2019-02-18T14:04:17.731Z,29.11
2019-02-18T14:06:47.304Z,28.92
2019-02-18T14:09:16.907Z,30.31
2019-02-18T14:11:46.512Z,30.30
2019-02-18T14:14:16.525Z,29.07
2019-02-18T14:16:46.064Z,28.76
2019-02-18T14:19:15.660Z,28.33
2019-02-18T14:21:45.851Z,28.04
2019-02-18T14:24:15.367Z,28.40
2019-02-18T14:26:44.981Z,28.27
2019-02-18T14:29:14.531Z,29.05
2019-02-18T14:31:44.110Z,28.56
2019-02-18T14:34:13.753Z,27.55
2019-02-18T14:36:44.730Z,27.75
2019-02-18T14:39:15.950Z,28.07
2019-02-18T14:41:45.546Z,28.49
2019-02-18T14:44:15.156Z,28.61
2019-02-18T14:46:44.820Z,29.04
2019-02-18T14:49:14.432Z,28.32
2019-02-18T14:51:44.564Z,27.82
2019-02-18T14:54:14.061Z,27.33
2019-02-18T14:56:43.830Z,27.44
2019-02-18T14:59:13.462Z,26.08
2019-02-18T15:01:43.854Z,25.60
2019-02-18T15:04:13.430Z,25.90
2019-02-18T15:06:43.043Z,25.87
2019-02-18T15:09:12.623Z,25.90
2019-02-18T15:11:42.332Z,25.26
2019-02-18T15:14:11.945Z,24.67
2019-02-18T15:16:41.471Z,24.90
2019-02-18T15:19:12.018Z,25.52
2019-02-18T15:21:41.930Z,26.35
2019-02-18T15:24:11.932Z,26.27
2019-02-18T15:26:41.508Z,26.07
2019-02-18T15:29:11.076Z,24.68
2019-02-18T15:31:40.682Z,24.14
2019-02-18T15:34:10.713Z,24.32
2019-02-18T15:36:40.353Z,24.55
2019-02-18T15:39:09.999Z,24.52
2019-02-18T15:41:39.507Z,25.06
2019-02-18T15:44:09.369Z,25.48
2019-02-18T15:46:38.997Z,24.84
2019-02-18T15:49:08.738Z,23.87
2019-02-18T15:51:38.372Z,23.93
2019-02-18T15:54:10.822Z,23.36
2019-02-18T15:56:40.439Z,22.24
2019-02-18T15:59:12.929Z,21.51
2019-02-18T16:01:42.896Z,20.94
2019-02-18T16:04:12.477Z,20.49
2019-02-18T16:06:42.029Z,20.32
2019-02-18T16:09:11.600Z,19.88
2019-02-18T16:11:41.106Z,19.63
2019-02-18T16:14:10.643Z,19.83
2019-02-18T16:16:40.160Z,19.49
2019-02-18T16:19:09.740Z,19.48
2019-02-18T16:21:41.021Z,19.43
2019-02-18T16:24:19.603Z,19.23
2019-02-18T16:26:41.813Z,19.00
2019-02-18T16:29:11.386Z,18.81
2019-02-18T16:31:41.303Z,18.70
2019-02-18T16:34:11.497Z,18.78
2019-02-18T16:36:41.923Z,18.75
2019-02-18T16:39:12.459Z,18.51
2019-02-18T16:41:41.977Z,18.23
2019-02-18T16:44:12.019Z,18.00
2019-02-18T16:46:41.550Z,17.82
2019-02-18T16:49:11.453Z,17.60
2019-02-18T16:51:40.989Z,17.47
2019-02-18T16:54:10.535Z,17.21
2019-02-18T16:56:40.079Z,16.94
2019-02-18T16:59:10.262Z,16.93
2019-02-18T17:01:39.958Z,16.85
2019-02-18T17:04:09.549Z,16.74
2019-02-18T17:06:39.167Z,16.47
2019-02-18T17:09:14.315Z,16.36
2019-02-18T17:11:43.887Z,16.03
2019-02-18T17:14:13.534Z,15.98
2019-02-18T17:16:43.050Z,15.79
2019-02-18T17:19:12.639Z,15.57
2019-02-18T17:21:42.180Z,15.58
2019-02-18T17:24:11.763Z,15.72
2019-02-18T17:26:41.283Z,15.61
2019-02-18T17:29:10.887Z,15.40
2019-02-18T17:31:40.404Z,15.21
2019-02-18T17:34:09.908Z,15.14
2019-02-18T17:36:40.167Z,15.05
2019-02-18T17:39:10.465Z,14.87
2019-02-18T17:41:39.961Z,14.72
2019-02-18T17:44:09.775Z,14.72
2019-02-18T17:46:39.658Z,14.48
2019-02-18T17:49:09.357Z,14.58
2019-02-18T17:51:39.124Z,14.66
2019-02-18T17:54:08.930Z,14.46
2019-02-18T17:56:38.524Z,14.56
2019-02-18T17:59:08.633Z,14.57
2019-02-18T18:01:38.737Z,14.48
2019-02-18T18:04:08.602Z,14.52
2019-02-18T18:06:39.754Z,14.49
2019-02-18T18:09:10.128Z,14.53
2019-02-18T18:11:39.813Z,14.48
2019-02-18T18:14:09.961Z,14.33
2019-02-18T18:16:40.286Z,14.29
2019-02-18T18:19:10.083Z,14.22
2019-02-18T18:21:39.788Z,14.09
2019-02-18T18:24:09.711Z,14.06
2019-02-18T18:26:39.389Z,14.03
2019-02-18T18:29:09.088Z,14.00
2019-02-18T18:31:38.950Z,13.89
2019-02-18T18:34:08.879Z,13.96
2019-02-18T18:36:39.531Z,13.93
2019-02-18T18:39:09.494Z,13.93
2019-02-18T18:41:39.156Z,14.03
2019-02-18T18:44:09.038Z,13.94
2019-02-18T18:46:38.708Z,13.74
2019-02-18T18:49:08.347Z,13.45
2019-02-18T18:51:38.790Z,13.49
2019-02-18T18:54:08.631Z,13.46
2019-02-18T18:56:38.231Z,13.25
2019-02-18T18:59:08.111Z,13.23
2019-02-18T19:01:37.817Z,13.27
2019-02-18T19:04:07.576Z,13.22
2019-02-18T19:06:37.116Z,13.00
2019-02-18T19:09:06.781Z,12.89
2019-02-18T19:11:36.355Z,13.01
2019-02-18T19:14:05.930Z,12.69
2019-02-18T19:16:35.561Z,12.76
2019-02-18T19:19:05.539Z,12.67
2019-02-18T19:21:35.543Z,12.68
2019-02-18T19:24:05.486Z,12.65
2019-02-18T19:26:34.993Z,12.60
2019-02-18T19:29:04.595Z,12.51
2019-02-18T19:31:34.084Z,12.29
2019-02-18T19:34:03.693Z,12.23
2019-02-18T19:36:33.340Z,12.28
2019-02-18T19:39:03.561Z,12.24
2019-02-18T19:41:33.335Z,12.20
2019-02-18T19:44:02.980Z,12.25
2019-02-18T19:46:32.790Z,12.21
2019-02-18T19:49:02.280Z,12.44
2019-02-18T19:51:31.901Z,12.33
2019-02-18T19:54:01.446Z,12.36
2019-02-18T19:56:30.949Z,12.22
2019-02-18T19:59:00.495Z,12.04
2019-02-18T20:01:30.084Z,11.98
2019-02-18T20:03:59.666Z,11.87
2019-02-18T20:06:29.275Z,11.85
2019-02-18T20:08:58.791Z,11.83
2019-02-18T20:11:28.428Z,11.68
2019-02-18T20:13:59.052Z,11.66
2019-02-18T20:16:29.176Z,11.61
2019-02-18T20:18:58.694Z,11.61
2019-02-18T20:21:28.254Z,11.54
2019-02-18T20:23:57.825Z,11.45
2019-02-18T20:26:27.431Z,11.37
2019-02-18T20:28:58.559Z,11.25
2019-02-18T20:31:28.094Z,11.31
2019-02-18T20:33:57.671Z,11.10
2019-02-18T20:36:27.269Z,10.96
2019-02-18T20:38:58.528Z,11.08
2019-02-18T20:41:28.103Z,11.06
2019-02-18T20:43:57.780Z,10.88
2019-02-18T20:46:27.299Z,10.57
2019-02-18T20:48:56.910Z,10.52
2019-02-18T20:51:26.999Z,10.50
2019-02-18T20:53:57.781Z,10.27
2019-02-18T20:56:27.761Z,10.40
2019-02-18T20:58:57.465Z,10.28
2019-02-18T21:01:27.058Z,10.35
2019-02-18T21:03:57.296Z,10.16
2019-02-18T21:06:27.315Z,10.09
2019-02-18T21:08:56.863Z,10.03
2019-02-18T21:11:26.476Z,9.92
2019-02-18T21:13:56.098Z,9.96
2019-02-18T21:16:25.675Z,9.83
2019-02-18T21:18:55.359Z,9.84
2019-02-18T21:21:25.017Z,9.77
2019-02-18T21:23:55.165Z,9.76
2019-02-18T21:26:24.734Z,9.73
2019-02-18T21:28:54.478Z,9.83
2019-02-18T21:31:24.092Z,9.77
2019-02-18T21:33:53.691Z,9.83
2019-02-18T21:36:23.302Z,9.71
2019-02-18T21:38:53.229Z,9.83
2019-02-18T21:41:22.898Z,9.68
2019-02-18T21:43:52.459Z,9.51
2019-02-18T21:46:22.120Z,9.46
2019-02-18T21:48:51.674Z,9.69
2019-02-18T21:51:21.265Z,9.58
2019-02-18T21:53:51.006Z,9.59
2019-02-18T21:56:20.749Z,9.63
2019-02-18T21:58:50.298Z,9.58
2019-02-18T22:01:19.821Z,9.41
2019-02-18T22:03:49.342Z,9.44
2019-02-18T22:06:18.933Z,9.68
2019-02-18T22:08:48.494Z,9.77
2019-02-18T22:11:18.229Z,9.80
2019-02-18T22:13:48.083Z,9.70
2019-02-18T22:16:17.750Z,9.72
2019-02-18T22:18:47.292Z,9.72
2019-02-18T22:21:16.934Z,9.69
2019-02-18T22:23:46.804Z,9.63
2019-02-18T22:26:16.510Z,9.78
2019-02-18T22:28:46.088Z,9.69
2019-02-18T22:31:15.777Z,9.63
2019-02-18T22:33:45.282Z,9.59
2019-02-18T22:36:14.953Z,9.67
2019-02-18T22:38:44.833Z,9.54
2019-02-18T22:41:14.475Z,9.49
2019-02-18T22:43:44.174Z,9.68
2019-02-18T22:46:13.776Z,9.57
2019-02-18T22:48:43.303Z,9.65
2019-02-18T22:51:12.918Z,9.69
2019-02-18T22:53:42.924Z,9.70
2019-02-18T22:56:12.502Z,9.66
2019-02-18T22:58:42.131Z,9.62
2019-02-18T23:01:12.398Z,9.60
2019-02-18T23:03:42.091Z,9.43
2019-02-18T23:06:11.809Z,9.30
2019-02-18T23:08:42.973Z,9.45
2019-02-18T23:11:13.066Z,9.54
2019-02-18T23:13:46.132Z,9.35
2019-02-18T23:16:15.700Z,9.55
2019-02-18T23:18:45.202Z,9.51
2019-02-18T23:21:14.744Z,9.65
2019-02-18T23:23:44.729Z,9.64
2019-02-18T23:26:14.241Z,9.48
2019-02-18T23:28:43.892Z,9.61
2019-02-18T23:31:13.552Z,9.73
2019-02-18T23:33:43.284Z,9.83
2019-02-18T23:36:13.377Z,9.92
2019-02-18T23:38:42.969Z,9.93
2019-02-18T23:41:12.542Z,9.84
2019-02-18T23:43:42.188Z,9.82
2019-02-18T23:46:11.695Z,9.77
2019-02-18T23:48:41.222Z,9.77
2019-02-18T23:51:10.767Z,9.69
2019-02-18T23:53:40.316Z,9.63
2019-02-18T23:56:18.322Z,9.75
2019-02-18T23:58:47.912Z,9.75
